首页
METAR-TAF:

METAR-TAF

机场 :

阿馬里洛, 得克萨斯州, 美国

纬度: 35-13-12N, 经度: 101-43-02W, 海拔: 1099米

当前天气观测

该预报发布于21分钟前的21:53 UTC
风速11节,风向,有时为20节阵风
温度 33°C
湿度 8%
气压 1011 hPa
能見度: 16.1公里
天空无云

METAR: KAMA 262153Z 35011G20KT 10SM CLR 33/M06 A2984 RMK AO2 SLP048 T03331056

时间: 17:14 (22:14 UTC)

预报

该预报发布于4小时和54分钟前的17:20 UTC
预报有效从26日的 18点(UTC)到 27日的 18点(UTC)
风速13节,风向西北,有时为22节阵风
能見度: 10公里
天空无云
从 27日的 0000点(UTC)
风速9节,风向北转西北
能見度: 10公里
天空无云
从 27日的 1100点(UTC)
风速5节,风向
能見度: 10公里
天空无云
从 27日的 1600点(UTC)
风速10节,风向东南
能見度: 10公里
天空无云

TAF: KAMA 261720Z 2618/2718 31013G22KT P6SM SKC FM270000 34009KT P6SM SKC FM271100 09005KT P6SM SKC FM271600 13010KT P6SM SKC

超过4000个机场的气象观测和天气预报(METAR&TAF报告)。

可查询的气象台以黄色和红色小点在地图上表示。

将鼠标移到小点上方,可查看气象台名称。

然后点击查看天气观测和预报。

如需切换地图:点击带黑十字的绿色按钮放大地图;点击带横线的绿色按钮缩小地图;或者点击绿色箭头查看邻近地区的地图。


METAR-TAF: